Maghull, United Kingdom
Current Conditions -  °F | °C
As of 3:20 AM on Sunday 21 Dec 2014 (Local Time) from EGGP Reporting Station
Scattered Clouds Scattered Clouds  
Wind Chill: 41°   Ceiling: Unl
Heat Index: 46°   Visibility: 6mi
Dew Point: 39°   Wind: 13mph
Humidity: 76%   Direction: 230°SW
Pressure: 30.3"   Gusts: NA
Location:  53.52°N, 2.95°W
Report Text: EGGP 210320Z 23011KT 9999 SCT036 08/04 Q1026
Loading
Personal Weather Stations






























Interactive Weather Map New forecast layout! Learn more

10-Day Weather Forecast

Advertisements
Track Severe Weather on mobile